Time;durP1;ratioP1;P1;durP2;ratioP2;P2;SDS_P1;SDS_P2;PMS_P1;PMS_P2;Temp;Humidity;BMP_temperature;BMP_pressure;BME280_temperature;BME280_humidity;BME280_pressure;Samples;Min_cycle;Max_cycle;Signal;HPM_P1;HPM_P2
2021/05/21 00:00:05;;;;;;;1.88;1.58;;;13.20;58.70;;;13.36;49.61;97451.66;5044799;28;20052;-46
2021/05/21 00:02:36;;;;;;;;;;;13.20;58.80;;;13.31;50.14;97451.38;5049107;28;20048;-47
2021/05/21 00:05:05;;;;;;;4.07;1.55;;;13.20;59.70;;;13.28;50.14;97456.22;5043500;28;19924;-49
2021/05/21 00:07:34;;;;;;;1.75;1.40;;;13.10;59.10;;;13.23;50.36;97453.28;5043991;28;20061;-45
2021/05/21 00:10:03;;;;;;;4.32;1.58;;;13.20;59.00;;;13.16;50.39;97454.03;5042038;28;20067;-48
2021/05/21 00:12:32;;;;;;;1.98;1.50;;;13.20;59.10;;;13.14;50.40;97448.03;5044006;28;20055;-46
2021/05/21 00:15:00;;;;;;;2.55;1.95;;;13.10;59.20;;;13.13;50.67;97443.69;5044291;28;20044;-46
2021/05/21 00:17:28;;;;;;;2.85;1.77;;;13.10;59.20;;;13.07;50.72;97443.59;5045630;28;20398;-46
2021/05/21 00:19:56;;;;;;;3.88;2.00;;;13.10;59.20;;;13.10;50.90;97427.19;5026103;28;20557;-45
2021/05/21 00:22:25;;;;;;;4.40;1.92;;;13.10;59.30;;;13.12;50.77;97423.31;5060526;28;20270;-48
2021/05/21 00:24:53;;;;;;;1.98;1.67;;;13.10;59.30;;;13.09;50.84;97430.88;5044422;28;20159;-46
2021/05/21 00:27:22;;;;;;;2.00;1.45;;;13.10;59.30;;;13.07;51.18;97430.22;5045009;28;20049;-46
2021/05/21 00:29:50;;;;;;;2.63;1.70;;;13.10;59.40;;;13.08;50.85;97429.22;5042669;28;20220;-45
2021/05/21 00:32:18;;;;;;;3.33;2.03;;;13.10;59.30;;;13.03;51.05;97426.25;5043852;28;20063;-44
2021/05/21 00:34:46;;;;;;;2.80;1.70;;;13.10;59.30;;;13.05;50.95;97419.72;5026076;28;20064;-46
2021/05/21 00:37:14;;;;;;;8.10;2.05;;;13.10;59.30;;;13.05;50.87;97411.69;5044239;28;20327;-47
2021/05/21 00:39:43;;;;;;;3.10;1.65;;;13.10;59.40;;;13.06;50.85;97413.34;5026863;28;20053;-49
2021/05/21 00:42:11;;;;;;;2.58;2.05;;;13.10;59.30;;;13.00;51.32;97409.56;5026616;28;20056;-48
2021/05/21 00:44:39;;;;;;;2.15;1.75;;;13.10;59.30;;;13.00;50.96;97393.53;5025558;28;20068;-48
2021/05/21 00:47:08;;;;;;;3.22;1.63;;;13.10;59.40;;;12.97;50.87;97372.53;5043151;28;20059;-48
2021/05/21 00:49:36;;;;;;;2.35;1.83;;;13.10;59.20;;;12.99;51.39;97372.34;5043925;28;20258;-46
2021/05/21 00:52:05;;;;;;;2.00;1.60;;;13.10;59.20;;;13.02;51.06;97363.97;5044722;28;20343;-47
2021/05/21 00:54:35;;;;;;;2.03;1.50;;;13.10;59.10;;;13.01;51.04;97364.97;5043722;28;20049;-49
2021/05/21 00:57:06;;;;;;;2.08;1.60;;;13.10;59.30;;;13.00;51.02;97363.31;5042252;28;20064;-45
2021/05/21 00:59:35;;;;;;;1.83;1.33;;;13.10;59.10;;;12.99;51.18;97367.84;5024787;28;20343;-47
2021/05/21 01:02:03;;;;;;;2.22;1.58;;;13.10;59.20;;;13.02;50.92;97365.81;5042599;28;20277;-50
2021/05/21 01:04:31;;;;;;;2.63;1.42;;;13.10;59.20;;;13.02;50.92;97347.09;5044961;28;20395;-46
2021/05/21 01:20:47;;;;;;;1.63;1.50;;;13.00;59.70;;;12.90;51.32;97344.06;5027401;28;20041;-48
2021/05/21 01:23:15;;;;;;;2.28;1.83;;;12.90;60.10;;;12.85;51.17;97339.25;5025291;28;20057;-44
2021/05/21 01:25:44;;;;;;;4.25;2.03;;;12.90;59.40;;;12.80;51.71;97341.66;5026560;28;20192;-46
2021/05/21 01:28:15;;;;;;;2.50;1.52;;;12.80;59.80;;;12.77;51.23;97342.00;5029315;28;20370;-44
2021/05/21 01:30:43;;;;;;;2.33;1.98;;;12.80;59.50;;;12.68;51.43;97333.25;5028592;28;20064;-46
2021/05/21 01:33:12;;;;;;;2.75;1.70;;;12.80;59.60;;;12.69;51.54;97334.09;5010285;28;20346;-46
2021/05/21 01:35:41;;;;;;;1.75;1.40;;;12.80;59.60;;;12.64;51.51;97339.97;5028616;28;20057;-47
2021/05/21 01:38:12;;;;;;;3.50;2.00;;;12.80;59.50;;;12.63;51.61;97337.47;5027589;28;20266;-45
2021/05/21 01:40:43;;;;;;;2.22;1.40;;;12.80;59.70;;;12.63;51.62;97326.81;5041349;28;20132;-49
2021/05/21 01:43:12;;;;;;;1.30;1.20;;;12.80;59.70;;;12.64;51.69;97331.13;5026178;28;20242;-45
2021/05/21 01:45:42;;;;;;;2.55;1.50;;;12.80;59.80;;;12.57;51.84;97313.16;5028347;28;20053;-46
2021/05/21 01:48:12;;;;;;;1.85;1.33;;;12.70;59.50;;;12.58;51.66;97320.16;5027503;28;20364;-47
2021/05/21 01:50:40;;;;;;;3.10;1.40;;;12.70;59.70;;;12.53;51.82;97322.53;5026857;28;20056;-48
2021/05/21 01:53:08;;;;;;;5.05;1.70;;;12.70;59.50;;;12.54;51.68;97318.88;5025798;28;20092;-47
2021/05/21 01:55:36;;;;;;;3.45;1.40;;;12.70;59.50;;;12.54;51.75;97315.34;5027375;28;20064;-45
2021/05/21 01:58:05;;;;;;;1.38;1.20;;;12.70;59.70;;;12.56;51.69;97314.19;5027410;28;20065;-45
2021/05/21 02:00:33;;;;;;;1.85;1.20;;;12.70;59.80;;;12.54;51.82;97313.53;5027198;28;20053;-47
2021/05/21 02:03:01;;;;;;;1.38;1.27;;;12.70;59.90;;;12.53;51.84;97309.19;5027684;28;20052;-45
2021/05/21 02:05:29;;;;;;;1.60;1.30;;;12.70;59.90;;;12.51;51.79;97305.88;5026500;28;20049;-46
2021/05/21 02:07:57;;;;;;;1.98;1.30;;;12.60;60.10;;;12.49;52.40;97297.22;5026320;28;20041;-45
2021/05/21 02:10:25;;;;;;;2.20;1.48;;;12.60;60.10;;;12.49;52.09;97302.56;5026087;28;20240;-47
2021/05/21 02:12:53;;;;;;;2.80;1.40;;;12.60;61.10;;;12.53;52.25;97293.16;5027469;28;20348;-49
2021/05/21 02:15:22;;;;;;;2.38;1.50;;;12.60;60.40;;;12.50;51.92;97290.84;5026563;28;20049;-47
2021/05/21 02:17:50;;;;;;;1.90;1.50;;;12.50;60.50;;;12.53;51.96;97281.66;5027271;28;20382;-47
2021/05/21 02:20:19;;;;;;;3.55;1.75;;;12.60;60.40;;;12.52;51.92;97275.50;5026788;28;20059;-47
2021/05/21 02:22:47;;;;;;;3.45;1.38;;;12.60;60.60;;;12.56;52.28;97268.78;5026796;28;20053;-48
2021/05/21 02:25:16;;;;;;;2.65;1.42;;;12.50;60.80;;;12.58;52.15;97268.59;5026317;28;20356;-45
2021/05/21 02:27:44;;;;;;;2.65;1.38;;;12.50;60.80;;;12.61;51.77;97266.38;5026125;28;20509;-49
2021/05/21 02:30:13;;;;;;;1.60;1.20;;;12.50;60.80;;;12.53;51.99;97265.66;5027627;28;20578;-50
2021/05/21 02:32:41;;;;;;;2.80;1.50;;;12.50;60.90;;;12.50;52.12;97269.50;5026649;28;20060;-46
2021/05/21 02:35:11;;;;;;;1.77;1.50;;;12.50;61.00;;;12.47;52.23;97258.38;5026598;28;20049;-48
2021/05/21 02:37:40;;;;;;;1.80;1.42;;;12.40;60.90;;;12.48;52.25;97258.16;5026642;28;20080;-45
2021/05/21 02:40:09;;;;;;;3.25;1.60;;;12.40;61.20;;;12.46;52.19;97244.19;5025984;28;20258;-45
2021/05/21 02:42:38;;;;;;;1.40;1.30;;;12.50;61.10;;;12.45;52.01;97249.72;5007098;28;20059;-46
2021/05/21 02:45:07;;;;;;;1.73;1.35;;;12.40;61.00;;;12.44;52.22;97238.19;5027216;28;20046;-50
2021/05/21 02:47:36;;;;;;;2.05;1.48;;;12.40;60.80;;;12.39;52.36;97236.09;5025140;28;20049;-49
2021/05/21 02:50:06;;;;;;;2.42;1.50;;;12.50;60.70;;;12.40;52.20;97240.38;5025932;28;20080;-46
2021/05/21 02:52:34;;;;;;;1.42;1.30;;;12.40;60.70;;;12.36;52.36;97235.63;5025311;28;20071;-46
2021/05/21 02:55:05;;;;;;;1.92;1.20;;;12.40;60.70;;;12.27;52.71;97234.88;5024748;28;20123;-46
2021/05/21 02:57:33;;;;;;;1.48;1.17;;;12.40;60.60;;;12.23;52.86;97233.56;5024855;28;20286;-49
2021/05/21 03:00:01;;;;;;;1.95;1.30;;;12.40;60.70;;;12.23;52.78;97236.22;5026511;28;20039;-48
2021/05/21 03:02:30;;;;;;;2.80;1.60;;;12.40;60.60;;;12.25;52.39;97223.53;5025196;28;20046;-45
2021/05/21 03:04:58;;;;;;;1.30;0.98;;;12.40;60.70;;;12.27;52.45;97224.19;5026138;28;20045;-49
2021/05/21 03:07:26;;;;;;;2.47;1.25;;;12.40;60.50;;;12.24;52.79;97224.56;5007736;28;20120;-47
2021/05/21 03:09:54;;;;;;;1.20;1.10;;;12.40;60.80;;;12.23;52.77;97214.06;5026871;28;20049;-48
2021/05/21 03:12:22;;;;;;;2.25;1.30;;;12.40;60.70;;;12.20;52.78;97205.41;5023801;28;20063;-49
2021/05/21 03:14:51;;;;;;;1.30;1.20;;;12.40;60.90;;;12.26;52.27;97203.84;5025587;28;20039;-46
2021/05/21 03:17:19;;;;;;;1.20;1.10;;;12.40;60.70;;;12.24;52.70;97197.88;5026769;28;20045;-46
2021/05/21 03:19:48;;;;;;;1.70;1.35;;;12.40;60.70;;;12.26;52.60;97200.34;5025554;28;20059;-50
2021/05/21 03:22:16;;;;;;;2.15;1.20;;;12.30;60.70;;;12.26;52.28;97192.34;5026279;28;20343;-47
2021/05/21 03:24:44;;;;;;;1.30;1.20;;;12.40;60.90;;;12.27;52.75;97194.84;5035056;28;20056;-49
2021/05/21 03:27:12;;;;;;;3.70;1.05;;;12.30;61.00;;;12.27;52.63;97200.19;5017546;28;20052;-52
2021/05/21 03:29:40;;;;;;;2.15;1.15;;;12.30;60.90;;;12.25;52.41;97199.50;5025524;28;20041;-47
2021/05/21 03:32:11;;;;;;;1.33;1.10;;;12.30;60.90;;;12.26;52.49;97192.34;5026251;28;20051;-48
2021/05/21 03:34:39;;;;;;;1.58;1.27;;;12.30;61.30;;;12.21;52.60;97190.22;5025551;28;20049;-49
2021/05/21 03:37:08;;;;;;;1.58;1.33;;;12.20;61.30;;;12.18;52.68;97186.09;5021518;28;20053;-47
2021/05/21 03:39:36;;;;;;;2.85;1.70;;;12.20;61.10;;;12.11;52.90;97182.47;5019996;28;20053;-48
2021/05/21 03:42:06;;;;;;;1.80;1.40;;;12.20;62.20;;;12.12;52.91;97199.34;5020127;28;20050;-46
2021/05/21 03:44:35;;;;;;;2.95;1.30;;;12.20;61.50;;;12.13;52.72;97199.13;4987832;28;20042;-48
2021/05/21 03:47:03;;;;;;;1.42;1.33;;;12.20;61.60;;;12.15;52.80;97197.09;4988045;28;20232;-47
2021/05/21 03:49:32;;;;;;;1.40;1.30;;;12.10;61.60;;;12.15;52.79;97193.63;5004636;28;20053;-47
2021/05/21 03:52:01;;;;;;;3.28;1.98;;;12.10;61.50;;;12.15;52.79;97188.28;5020919;28;20054;-46
2021/05/21 03:54:29;;;;;;;1.58;1.23;;;12.20;61.30;;;12.12;52.55;97192.16;5005624;28;20362;-47
2021/05/21 03:56:57;;;;;;;1.30;1.20;;;12.20;61.30;;;12.12;52.94;97186.00;5005891;28;20054;-48
2021/05/21 03:59:27;;;;;;;1.65;1.30;;;12.10;61.10;;;12.05;53.12;97191.22;5006275;28;20042;-48
2021/05/21 04:01:55;;;;;;;1.67;1.30;;;12.20;61.10;;;12.11;52.60;97173.66;5006807;28;20223;-47
2021/05/21 04:04:23;;;;;;;2.83;1.70;;;12.20;61.10;;;12.06;52.74;97168.88;5005441;28;20255;-51
2021/05/21 04:06:51;;;;;;;1.98;1.02;;;12.20;60.80;;;12.14;52.42;97165.28;5006194;28;20117;-49
2021/05/21 04:09:19;;;;;;;1.48;1.23;;;12.30;60.60;;;12.18;52.44;97170.06;5004538;28;20049;-49
2021/05/21 04:11:48;;;;;;;1.20;1.10;;;12.30;60.50;;;12.20;51.87;97159.22;5004290;28;20053;-48
2021/05/21 04:14:17;;;;;;;2.00;1.42;;;12.30;60.40;;;12.23;51.96;97158.00;5005233;28;20061;-51
2021/05/21 04:16:45;;;;;;;1.33;1.23;;;12.30;60.20;;;12.26;51.86;97160.31;5005459;28;20247;-48
2021/05/21 04:19:14;;;;;;;1.65;1.27;;;12.40;59.90;;;12.27;51.44;97154.81;5005643;28;20058;-45
2021/05/21 04:21:42;;;;;;;1.20;1.00;;;12.40;59.60;;;12.33;51.58;97153.22;5005041;28;20057;-50
2021/05/21 04:24:11;;;;;;;4.07;1.30;;;12.50;59.50;;;12.34;51.28;97154.88;5005569;28;20049;-46
2021/05/21 04:26:39;;;;;;;2.22;1.30;;;12.50;59.30;;;12.38;51.25;97148.16;4987056;28;20324;-47
2021/05/21 04:29:08;;;;;;;1.83;1.10;;;12.50;59.30;;;12.41;51.57;97150.47;5004231;28;20046;-45
2021/05/21 04:31:36;;;;;;;1.60;1.15;;;12.50;59.20;;;12.41;51.02;97145.16;5023018;23;20063;-54
2021/05/21 04:34:04;;;;;;;1.20;1.10;;;12.60;58.90;;;12.41;51.39;97150.47;5017963;28;20530;-53
2021/05/21 04:36:33;;;;;;;1.65;1.13;;;12.60;59.00;;;12.41;51.71;97150.47;5024116;28;20247;-52
2021/05/21 04:39:04;;;;;;;3.80;1.30;;;12.60;58.80;;;12.43;51.06;97148.44;5023689;28;20061;-53
2021/05/21 04:41:33;;;;;;;2.25;1.10;;;12.70;58.70;;;12.44;51.11;97146.59;5024557;28;20261;-55
2021/05/21 04:44:01;;;;;;;1.33;1.08;;;12.70;58.50;;;12.50;51.35;97138.66;5024850;28;20063;-54
2021/05/21 04:46:29;;;;;;;1.48;1.10;;;12.70;58.60;;;12.51;50.92;97139.53;5023530;28;20057;-51
2021/05/21 04:48:57;;;;;;;1.23;1.13;;;12.80;58.30;;;12.57;50.71;97144.13;5026187;28;20064;-51
2021/05/21 04:51:25;;;;;;;3.22;1.30;;;12.80;58.30;;;12.58;50.42;97141.25;5028960;28;20049;-54
2021/05/21 04:53:54;;;;;;;2.10;1.40;;;12.80;57.90;;;12.67;50.56;97133.97;5027333;28;20045;-52
2021/05/21 04:56:22;;;;;;;4.10;1.20;;;12.90;58.10;;;12.69;50.52;97131.09;5026721;28;20063;-55
2021/05/21 04:58:50;;;;;;;1.27;1.17;;;12.90;58.00;;;12.75;50.51;97125.84;5029799;28;20043;-55
2021/05/21 05:01:18;;;;;;;2.78;1.30;;;12.90;58.10;;;12.75;50.34;97122.34;5028641;28;20045;-51
2021/05/21 05:03:47;;;;;;;3.53;1.30;;;12.90;58.10;;;12.72;50.26;97126.22;5028193;28;20061;-53
2021/05/21 05:06:15;;;;;;;1.80;1.35;;;13.00;57.90;;;12.73;50.09;97124.38;5028327;28;20369;-53
2021/05/21 05:08:43;;;;;;;3.03;1.20;;;12.90;58.60;;;12.75;50.56;97117.00;5029219;28;20342;-54
2021/05/21 05:11:11;;;;;;;1.40;1.10;;;13.00;58.10;;;12.75;50.51;97115.16;5027339;28;20059;-53
2021/05/21 05:13:39;;;;;;;1.65;1.40;;;12.90;58.10;;;12.77;50.86;97112.28;5026498;28;20053;-52
2021/05/21 05:16:08;;;;;;;1.70;1.10;;;13.00;58.20;;;12.79;50.69;97116.44;5027787;28;20057;-50
2021/05/21 05:18:36;;;;;;;2.00;1.27;;;13.00;58.20;;;12.80;50.64;97103.91;5027172;28;20048;-53
2021/05/21 05:21:06;;;;;;;1.50;1.25;;;13.10;58.30;;;12.85;50.74;97106.84;5028147;28;20339;-52
2021/05/21 05:23:35;;;;;;;1.75;1.30;;;13.10;58.20;;;12.87;50.58;97101.31;5028357;28;20049;-52
2021/05/21 05:26:03;;;;;;;1.88;1.23;;;13.10;58.20;;;12.91;50.58;97094.56;5028892;28;20312;-50
2021/05/21 05:28:31;;;;;;;3.25;1.20;;;13.20;58.20;;;12.92;50.61;97104.25;5027461;28;20064;-51
2021/05/21 05:30:59;;;;;;;1.95;1.45;;;13.20;58.10;;;12.89;50.62;97099.28;5042287;28;20064;-51
2021/05/21 05:33:27;;;;;;;2.20;1.20;;;13.20;57.90;;;12.92;50.65;97094.38;5027965;28;20052;-51
2021/05/21 05:35:56;;;;;;;2.67;1.13;;;13.20;58.00;;;12.94;50.44;97096.88;5026248;28;20235;-51
2021/05/21 05:38:25;;;;;;;4.90;1.27;;;13.20;57.80;;;12.98;50.60;97093.63;5027157;28;20107;-50
2021/05/21 05:40:53;;;;;;;1.20;1.10;;;13.30;57.90;;;13.03;50.20;97090.41;5029032;28;20055;-54
2021/05/21 05:43:21;;;;;;;2.72;1.38;;;13.30;57.80;;;13.04;50.49;97088.53;5028575;28;20045;-53
2021/05/21 05:45:49;;;;;;;2.53;1.20;;;13.30;57.60;;;13.06;50.15;97090.00;5028698;28;20079;-51
2021/05/21 05:48:19;;;;;;;2.83;1.40;;;13.30;57.70;;;13.14;50.07;97081.03;5025252;28;20041;-53
2021/05/21 05:50:50;;;;;;;1.45;1.10;;;13.40;57.70;;;13.14;50.26;97079.22;5027345;28;20059;-52
2021/05/21 05:53:19;;;;;;;3.25;1.00;;;13.40;57.70;;;13.16;50.22;97073.66;5025969;28;20057;-54
2021/05/21 05:55:48;;;;;;;1.15;1.00;;;13.40;57.50;;;13.10;50.14;97075.22;5027476;28;20052;-53
2021/05/21 05:58:16;;;;;;;2.65;1.42;;;13.40;57.30;;;13.13;50.09;97079.38;5025454;28;20230;-51
2021/05/21 06:00:44;;;;;;;1.25;1.10;;;13.40;57.40;;;13.17;50.27;97067.28;5023366;28;20056;-53
2021/05/21 06:03:12;;;;;;;1.58;1.48;;;13.50;57.50;;;13.20;50.06;97074.91;5027675;28;20354;-52
2021/05/21 06:05:40;;;;;;;1.80;1.70;;;13.50;57.30;;;13.24;49.92;97070.88;5026893;28;20059;-53
2021/05/21 06:08:09;;;;;;;2.15;1.50;;;13.50;57.20;;;13.24;50.13;97064.66;5025713;28;20049;-51
2021/05/21 06:10:38;;;;;;;3.33;1.42;;;13.50;57.30;;;13.31;50.10;97065.59;5027049;28;20056;-54
2021/05/21 06:13:09;;;;;;;1.30;1.20;;;13.60;57.40;;;13.32;49.79;97059.25;5026707;28;20576;-55
2021/05/21 06:15:39;;;;;;;2.03;1.23;;;13.60;57.00;;;13.40;50.07;97059.09;5027648;28;20075;-54
2021/05/21 06:18:07;;;;;;;2.42;1.33;;;13.70;57.30;;;13.38;49.79;97059.28;5026072;28;20057;-53
2021/05/21 06:20:36;;;;;;;1.85;1.27;;;13.70;57.00;;;13.43;49.90;97056.03;5025249;28;20060;-52
2021/05/21 06:23:04;;;;;;;2.22;1.45;;;13.70;57.20;;;13.47;49.83;97053.78;5028785;28;20049;-54
2021/05/21 06:28:19;;;;;;;;;;;13.80;57.10;;;13.42;49.79;97049.03;5029356;28;20671;-52
2021/05/21 06:30:47;;;;;;;2.33;1.23;;;13.80;56.80;;;13.45;49.97;97053.16;5025252;28;19923;-51
2021/05/21 06:33:16;;;;;;;1.60;1.50;;;13.80;57.30;;;13.45;49.87;97051.31;5025802;28;20220;-54
2021/05/21 06:35:46;;;;;;;2.40;1.38;;;13.80;57.20;;;13.50;49.88;97050.75;5027655;28;20056;-50
2021/05/21 06:38:15;;;;;;;1.50;1.10;;;13.80;57.20;;;13.57;49.84;97052.44;5025708;28;20049;-54
2021/05/21 06:40:44;;;;;;;3.03;1.65;;;13.80;57.20;;;13.64;49.81;97043.63;5027301;28;20331;-55
2021/05/21 06:43:13;;;;;;;2.60;1.27;;;13.90;57.40;;;13.66;49.50;97041.59;5024909;28;20235;-51
2021/05/21 06:45:42;;;;;;;2.33;1.23;;;14.00;56.90;;;13.66;49.63;97046.94;5025951;28;20053;-54
2021/05/21 06:48:10;;;;;;;1.75;1.10;;;14.00;56.70;;;13.75;49.71;97030.53;5026173;28;20049;-54
2021/05/21 06:50:39;;;;;;;2.85;1.60;;;14.10;56.90;;;13.79;49.76;97030.97;5027562;28;20053;-56
2021/05/21 06:53:07;;;;;;;1.85;1.27;;;14.20;57.00;;;13.78;49.79;97026.63;5041484;28;20063;-56
2021/05/21 06:55:38;;;;;;;3.50;2.25;;;14.20;56.60;;;13.85;49.65;97030.19;5026396;28;20049;-52
2021/05/21 06:58:06;;;;;;;5.07;1.80;;;14.20;56.70;;;13.89;49.43;97017.25;5026381;28;20064;-52
2021/05/21 07:00:37;;;;;;;2.45;1.23;;;14.30;56.60;;;13.89;49.07;97017.25;5026747;28;20250;-53
2021/05/21 07:03:05;;;;;;;2.25;1.05;;;14.30;56.20;;;13.97;49.25;97022.44;5027249;28;20053;-54
2021/05/21 07:05:33;;;;;;;4.43;1.30;;;14.40;56.40;;;13.96;48.88;97016.25;5025444;28;20063;-50
2021/05/21 07:08:03;;;;;;;2.05;1.27;;;14.40;56.00;;;14.04;49.20;97017.94;5026448;28;20049;-50
2021/05/21 07:10:31;;;;;;;5.03;1.58;;;14.50;56.20;;;14.07;48.48;97016.72;5025942;28;20059;-54
2021/05/21 07:13:14;;;;;;;1.27;1.02;;;14.50;55.60;;;14.14;48.86;97021.06;5024513;28;20347;-54
2021/05/21 07:15:43;;;;;;;1.48;1.30;;;14.60;55.40;;;14.21;48.93;97021.13;5026065;28;20055;-56
2021/05/21 07:18:12;;;;;;;2.45;1.35;;;14.60;55.60;;;14.28;48.96;97016.59;5024846;28;20068;-55
2021/05/21 07:20:42;;;;;;;1.50;1.05;;;14.70;55.90;;;14.36;48.66;97018.28;5024293;28;20176;-53
2021/05/21 07:23:15;;;;;;;3.10;1.38;;;14.70;56.40;;;14.43;48.49;97021.00;5022400;28;20057;-55
2021/05/21 07:25:50;;;;;;;2.08;1.20;;;14.80;55.70;;;14.46;48.31;97013.38;5033302;28;20062;-53
2021/05/21 07:28:20;;;;;;;1.90;1.30;;;14.80;55.40;;;14.42;47.97;97014.78;5020770;28;20046;-55
2021/05/21 07:30:54;;;;;;;1.27;1.00;;;14.80;54.70;;;14.51;48.24;97023.50;5021206;28;20056;-56
2021/05/21 07:33:26;;;;;;;1.52;0.95;;;14.90;55.40;;;14.59;48.32;97025.19;5019891;28;20060;-56
2021/05/21 07:36:00;;;;;;;1.23;1.10;;;15.00;55.30;;;14.64;48.30;97022.75;5035178;28;20067;-57
2021/05/21 07:38:28;;;;;;;3.65;1.20;;;15.00;55.50;;;14.67;47.96;97022.31;5041355;28;20053;-52
2021/05/21 07:40:58;;;;;;;2.15;1.23;;;15.10;55.30;;;14.68;47.94;97024.81;5041870;28;20057;-55
2021/05/21 07:43:26;;;;;;;1.20;1.10;;;15.10;55.00;;;14.70;47.88;97025.44;5056619;28;20053;-55
2021/05/21 07:45:56;;;;;;;1.60;1.20;;;15.10;54.90;;;14.71;47.65;97027.09;5041877;28;20386;-54
2021/05/21 07:48:26;;;;;;;7.55;1.30;;;15.10;54.80;;;14.72;47.56;97028.72;5042472;28;20050;-43
2021/05/21 07:50:55;;;;;;;2.60;0.98;;;15.10;54.60;;;14.70;47.55;97028.09;5041367;28;20053;-43
2021/05/21 07:53:23;;;;;;;1.65;1.05;;;15.10;55.20;;;14.74;47.68;97015.94;5041580;28;20255;-45
2021/05/21 07:55:51;;;;;;;1.98;1.27;;;15.10;54.70;;;14.76;47.79;97021.94;5041663;28;20061;-44
2021/05/21 07:58:19;;;;;;;1.88;1.27;;;15.10;54.90;;;14.74;47.68;97018.63;5056871;28;20063;-44
2021/05/21 08:00:49;;;;;;;1.95;1.25;;;15.10;55.50;;;14.73;47.49;97021.50;5022444;28;20053;-45
2021/05/21 08:03:17;;;;;;;2.10;1.20;;;15.10;54.70;;;14.78;47.96;97011.03;5020731;28;20040;-43
2021/05/21 08:05:47;;;;;;;1.42;1.30;;;15.00;55.00;;;14.82;47.93;97006.91;5020992;28;20054;-43
2021/05/21 08:08:22;;;;;;;1.13;1.00;;;15.10;55.30;;;14.83;47.71;96997.00;5020017;28;20060;-43
2021/05/21 08:10:56;;;;;;;2.17;1.50;;;15.10;55.20;;;14.83;47.90;97000.53;5020899;28;20052;-44
2021/05/21 08:13:25;;;;;;;2.08;1.88;;;15.10;55.20;;;14.82;47.92;96992.69;5020403;28;20054;-44
2021/05/21 08:15:53;;;;;;;2.67;1.17;;;15.10;55.30;;;14.79;48.02;96979.69;5035563;28;20376;-44
2021/05/21 08:18:22;;;;;;;2.40;1.38;;;15.10;55.40;;;14.80;48.23;96976.81;5018485;28;20055;-43
2021/05/21 08:20:50;;;;;;;4.13;1.40;;;15.10;55.60;;;14.82;48.15;96977.41;5020908;28;20046;-45
2021/05/21 08:23:18;;;;;;;1.77;1.20;;;15.10;55.70;;;14.85;48.37;96981.53;5017908;28;20050;-44
2021/05/21 08:25:47;;;;;;;3.22;1.58;;;15.10;55.90;;;14.85;48.44;96986.91;5023855;28;20046;-45
2021/05/21 08:28:15;;;;;;;2.38;1.75;;;15.10;55.80;;;14.88;48.38;96992.69;5021411;28;20048;-43
2021/05/21 08:30:43;;;;;;;2.95;1.35;;;15.10;56.10;;;14.91;48.52;96988.78;5019876;28;20251;-45
2021/05/21 08:33:13;;;;;;;4.57;1.35;;;15.10;56.00;;;14.87;48.42;96984.84;5021811;28;20253;-43
2021/05/21 08:35:42;;;;;;;2.03;1.25;;;15.10;55.90;;;14.89;48.51;96985.50;5029496;28;20335;-44
2021/05/21 08:38:10;;;;;;;6.53;2.17;;;15.10;56.10;;;14.94;48.75;96986.50;5030579;28;20063;-44
2021/05/21 08:40:39;;;;;;;1.75;1.35;;;15.20;56.30;;;14.97;48.58;96987.97;5027201;28;20063;-45
2021/05/21 08:43:12;;;;;;;3.53;1.70;;;15.20;56.30;;;14.99;48.65;96985.91;5025547;28;20046;-43
2021/05/21 08:45:40;;;;;;;1.75;1.40;;;15.20;56.20;;;15.04;48.65;96993.31;5024205;28;20057;-44
2021/05/21 08:48:19;;;;;;;3.22;1.40;;;15.20;56.30;;;15.05;48.55;96987.75;5025420;28;20049;-43
2021/05/21 08:50:49;;;;;;;1.70;1.15;;;15.30;56.10;;;15.07;48.72;96984.88;5023935;28;20067;-42
2021/05/21 08:53:18;;;;;;;2.17;1.42;;;15.30;56.40;;;15.09;48.72;96985.50;5024435;28;20365;-42
2021/05/21 08:55:46;;;;;;;3.22;1.23;;;15.30;56.60;;;15.09;48.99;96980.13;5024007;28;20489;-43
2021/05/21 08:58:14;;;;;;;2.25;1.30;;;15.30;56.70;;;15.08;49.11;96984.69;5024987;28;20061;-42
2021/05/21 09:00:43;;;;;;;1.65;1.38;;;15.30;56.90;;;15.08;49.03;96982.00;5024059;28;20057;-42
2021/05/21 09:03:26;;;;;;;2.47;1.40;;;15.30;56.80;;;15.11;48.75;96984.25;5026172;28;20045;-42
2021/05/21 09:06:13;;;;;;;3.60;1.58;;;15.30;56.40;;;15.12;48.63;96983.22;5024007;28;20334;-42
2021/05/21 09:08:51;;;;;;;2.28;1.50;;;15.30;56.40;;;15.16;48.76;96979.09;5024743;28;20053;-42
2021/05/21 09:11:39;;;;;;;3.05;1.30;;;15.30;56.60;;;15.21;48.86;96981.16;5024614;28;20084;-43
2021/05/21 09:14:20;;;;;;;2.03;1.35;;;15.40;56.40;;;15.23;48.18;96978.28;5021792;28;20056;-44
2021/05/21 09:16:49;;;;;;;2.53;1.30;;;15.40;56.10;;;15.23;48.15;96978.28;5024291;28;20363;-44
2021/05/21 09:19:22;;;;;;;1.48;1.13;;;15.40;55.90;;;15.27;47.93;96966.91;5023399;28;20060;-42
2021/05/21 09:22:08;;;;;;;1.35;1.05;;;15.50;55.40;;;15.31;47.78;96972.69;5026031;28;20050;-43
2021/05/21 09:24:42;;;;;;;1.45;1.08;;;15.60;55.20;;;15.35;47.71;96973.91;5023127;28;20054;-43
2021/05/21 09:27:13;;;;;;;1.60;1.13;;;15.60;54.90;;;15.30;46.67;96966.50;5023695;28;20052;-44
2021/05/21 09:30:03;;;;;;;1.73;1.45;;;15.60;54.30;;;15.30;45.34;96971.06;5022836;28;20045;-45
2021/05/21 09:32:34;;;;;;;2.28;1.35;;;15.70;52.60;;;15.23;45.42;96973.72;5022743;28;20047;-44
2021/05/21 09:35:21;;;;;;;1.35;1.15;;;15.70;52.00;;;15.27;44.28;96974.13;5024980;28;20057;-43
2021/05/21 09:37:55;;;;;;;1.85;0.82;;;15.70;51.50;;;15.31;44.68;96984.22;5026101;28;20056;-44
2021/05/21 09:40:28;;;;;;;3.30;1.33;;;15.70;51.20;;;15.27;44.94;96993.72;5027990;28;20068;-45
2021/05/21 09:43:03;;;;;;;4.00;2.72;;;15.70;51.70;;;15.28;45.12;96998.06;5043596;28;20664;-43
2021/05/21 09:45:35;;;;;;;4.72;1.45;;;15.80;52.50;;;15.44;45.74;96998.69;5027208;28;20240;-43
2021/05/21 09:48:06;;;;;;;1.63;1.20;;;15.90;52.50;;;15.48;45.55;97010.66;5042481;28;20064;-42
2021/05/21 09:50:49;;;;;;;1.23;1.10;;;15.90;52.20;;;15.44;45.31;97015.59;5028360;28;20049;-43
2021/05/21 09:53:21;;;;;;;2.47;0.90;;;15.90;51.60;;;15.30;45.65;97022.00;5027561;28;20049;-44
2021/05/21 09:55:54;;;;;;;1.20;0.90;;;16.00;51.70;;;15.39;45.93;97031.47;5027618;28;20225;-44
2021/05/21 09:58:44;;;;;;;1.35;1.00;;;16.00;52.10;;;15.32;45.96;97041.41;5028436;28;20045;-43
2021/05/21 10:01:24;;;;;;;1.67;0.95;;;16.00;52.00;;;15.28;46.03;97046.34;5027731;28;20530;-43
2021/05/21 10:03:57;;;;;;;1.67;1.13;;;15.80;53.00;;;15.37;46.42;97044.25;5031454;28;20037;-43
2021/05/21 10:06:28;;;;;;;2.33;1.63;;;15.80;53.10;;;15.35;46.30;97052.53;5045380;28;20034;-44
2021/05/21 10:08:58;;;;;;;2.35;1.38;;;15.90;53.20;;;15.28;46.76;97054.38;5027681;28;20347;-43
2021/05/21 10:11:32;;;;;;;3.17;1.25;;;15.80;53.30;;;15.28;47.06;97049.03;5026681;28;20052;-43
2021/05/21 10:14:00;;;;;;;2.92;1.52;;;15.90;53.50;;;15.30;46.81;97046.13;5030502;28;20242;-42
2021/05/21 10:16:29;;;;;;;1.98;1.10;;;15.90;53.50;;;15.39;46.88;97052.94;5027235;28;20216;-42
2021/05/21 10:18:59;;;;;;;1.42;0.93;;;15.90;53.70;;;15.32;47.05;97044.91;5026904;28;20044;-44
2021/05/21 10:21:27;;;;;;;1.52;0.90;;;15.90;53.90;;;15.31;47.55;97043.22;5025983;28;20037;-43
2021/05/21 10:24:02;;;;;;;2.25;1.00;;;15.80;54.20;;;15.31;47.92;97048.59;5027938;28;20339;-43
2021/05/21 10:26:37;;;;;;;1.85;1.05;;;15.80;54.50;;;15.27;47.99;97042.00;5030584;28;20063;-42
2021/05/21 10:29:11;;;;;;;1.63;1.10;;;15.80;54.70;;;15.03;48.78;97034.56;5028179;28;20361;-43
2021/05/21 10:31:39;;;;;;;;;;;15.70;54.80;;;15.04;48.76;97030.84;5025990;28;20057;-43
2021/05/21 10:34:22;;;;;;;1.77;1.10;;;15.70;55.30;;;15.09;48.79;97026.53;5025033;28;19925;-42
2021/05/21 10:37:34;;;;;;;1.70;1.00;;;15.60;55.50;;;15.19;48.50;97022.63;5029796;28;20052;-42
2021/05/21 10:40:28;;;;;;;0.90;0.80;;;15.70;55.40;;;15.08;49.18;97021.34;5026721;28;20059;-43
2021/05/21 10:43:24;;;;;;;2.13;1.20;;;15.70;55.70;;;15.20;49.19;97017.06;5030153;28;20045;-44
2021/05/21 10:45:55;;;;;;;3.03;1.15;;;15.70;55.70;;;15.22;49.12;97030.22;5027087;28;20275;-42
2021/05/21 10:48:29;;;;;;;1.27;1.05;;;15.80;55.70;;;15.33;48.93;97024.25;5025601;28;20238;-43